sensor_id;sensor_type;location;lat;lon;timestamp;P1;durP1;ratioP1;P2;durP2;ratioP2
35048;SDS011;21236;48.740;-3.446;2023-02-12T00:01:18;17.25;;;11.60;;
35048;SDS011;21236;48.740;-3.446;2023-02-12T00:03:44;23.20;;;13.18;;
35048;SDS011;21236;48.740;-3.446;2023-02-12T00:06:10;27.75;;;13.68;;
35048;SDS011;21236;48.740;-3.446;2023-02-12T00:08:37;19.52;;;13.00;;
35048;SDS011;21236;48.740;-3.446;2023-02-12T00:13:35;22.25;;;13.68;;
35048;SDS011;21236;48.740;-3.446;2023-02-12T00:16:08;20.02;;;12.88;;
35048;SDS011;21236;48.740;-3.446;2023-02-12T00:18:35;22.20;;;12.85;;
35048;SDS011;21236;48.740;-3.446;2023-02-12T00:21:01;21.50;;;12.88;;
35048;SDS011;21236;48.740;-3.446;2023-02-12T00:23:28;20.80;;;13.38;;
35048;SDS011;21236;48.740;-3.446;2023-02-12T00:25:54;24.10;;;13.95;;
35048;SDS011;21236;48.740;-3.446;2023-02-12T00:28:20;22.40;;;13.40;;
35048;SDS011;21236;48.740;-3.446;2023-02-12T00:30:46;18.73;;;12.52;;
35048;SDS011;21236;48.740;-3.446;2023-02-12T00:33:13;29.17;;;14.05;;
35048;SDS011;21236;48.740;-3.446;2023-02-12T00:35:39;24.10;;;13.30;;
35048;SDS011;21236;48.740;-3.446;2023-02-12T00:38:05;24.58;;;13.13;;
35048;SDS011;21236;48.740;-3.446;2023-02-12T00:40:31;23.92;;;14.20;;
35048;SDS011;21236;48.740;-3.446;2023-02-12T00:42:57;23.30;;;13.13;;
35048;SDS011;21236;48.740;-3.446;2023-02-12T00:45:23;19.13;;;12.60;;
35048;SDS011;21236;48.740;-3.446;2023-02-12T00:47:49;23.58;;;12.63;;
35048;SDS011;21236;48.740;-3.446;2023-02-12T00:50:15;21.85;;;13.32;;
35048;SDS011;21236;48.740;-3.446;2023-02-12T00:52:42;18.80;;;12.30;;
35048;SDS011;21236;48.740;-3.446;2023-02-12T00:55:08;25.33;;;14.02;;
35048;SDS011;21236;48.740;-3.446;2023-02-12T00:57:34;21.98;;;13.05;;
35048;SDS011;21236;48.740;-3.446;2023-02-12T01:00:00;20.50;;;12.98;;
35048;SDS011;21236;48.740;-3.446;2023-02-12T01:02:26;22.08;;;13.57;;
35048;SDS011;21236;48.740;-3.446;2023-02-12T01:04:52;21.15;;;12.35;;
35048;SDS011;21236;48.740;-3.446;2023-02-12T01:07:22;17.00;;;11.90;;
35048;SDS011;21236;48.740;-3.446;2023-02-12T01:09:49;20.40;;;12.43;;
35048;SDS011;21236;48.740;-3.446;2023-02-12T01:12:15;19.05;;;11.95;;
35048;SDS011;21236;48.740;-3.446;2023-02-12T01:14:41;20.30;;;11.90;;
35048;SDS011;21236;48.740;-3.446;2023-02-12T01:17:07;19.60;;;12.30;;
35048;SDS011;21236;48.740;-3.446;2023-02-12T01:19:34;16.67;;;11.73;;
35048;SDS011;21236;48.740;-3.446;2023-02-12T01:22:00;17.98;;;10.85;;
35048;SDS011;21236;48.740;-3.446;2023-02-12T01:24:26;19.00;;;11.52;;
35048;SDS011;21236;48.740;-3.446;2023-02-12T01:26:52;19.25;;;11.40;;
35048;SDS011;21236;48.740;-3.446;2023-02-12T01:29:18;19.50;;;13.73;;
35048;SDS011;21236;48.740;-3.446;2023-02-12T01:31:44;21.55;;;12.60;;
35048;SDS011;21236;48.740;-3.446;2023-02-12T01:34:10;19.60;;;12.07;;
35048;SDS011;21236;48.740;-3.446;2023-02-12T01:36:37;23.92;;;12.48;;
35048;SDS011;21236;48.740;-3.446;2023-02-12T01:39:04;21.60;;;12.52;;
35048;SDS011;21236;48.740;-3.446;2023-02-12T01:41:32;19.02;;;12.38;;
35048;SDS011;21236;48.740;-3.446;2023-02-12T01:46:30;20.25;;;12.88;;
35048;SDS011;21236;48.740;-3.446;2023-02-12T01:48:57;21.73;;;13.18;;
35048;SDS011;21236;48.740;-3.446;2023-02-12T01:51:23;17.48;;;12.35;;
35048;SDS011;21236;48.740;-3.446;2023-02-12T01:53:50;18.42;;;12.25;;
35048;SDS011;21236;48.740;-3.446;2023-02-12T01:56:18;22.23;;;13.40;;
35048;SDS011;21236;48.740;-3.446;2023-02-12T01:58:45;22.80;;;13.40;;
35048;SDS011;21236;48.740;-3.446;2023-02-12T02:01:12;24.77;;;13.50;;
35048;SDS011;21236;48.740;-3.446;2023-02-12T02:03:41;22.25;;;14.00;;
35048;SDS011;21236;48.740;-3.446;2023-02-12T02:06:10;21.27;;;12.70;;
35048;SDS011;21236;48.740;-3.446;2023-02-12T02:08:37;19.63;;;12.63;;
35048;SDS011;21236;48.740;-3.446;2023-02-12T02:11:03;20.27;;;13.55;;
35048;SDS011;21236;48.740;-3.446;2023-02-12T02:13:49;24.20;;;14.32;;
35048;SDS011;21236;48.740;-3.446;2023-02-12T02:16:34;22.95;;;13.55;;
35048;SDS011;21236;48.740;-3.446;2023-02-12T02:19:03;23.17;;;14.00;;
35048;SDS011;21236;48.740;-3.446;2023-02-12T02:21:34;24.20;;;14.05;;
35048;SDS011;21236;48.740;-3.446;2023-02-12T02:24:14;23.75;;;13.45;;
35048;SDS011;21236;48.740;-3.446;2023-02-12T02:29:26;23.17;;;14.30;;
35048;SDS011;21236;48.740;-3.446;2023-02-12T02:34:49;23.88;;;14.40;;
35048;SDS011;21236;48.740;-3.446;2023-02-12T02:47:15;24.52;;;14.38;;
35048;SDS011;21236;48.740;-3.446;2023-02-12T02:49:46;23.58;;;14.05;;
35048;SDS011;21236;48.740;-3.446;2023-02-12T02:52:19;25.17;;;14.30;;
35048;SDS011;21236;48.740;-3.446;2023-02-12T02:54:47;22.90;;;14.00;;
35048;SDS011;21236;48.740;-3.446;2023-02-12T02:57:16;30.10;;;15.30;;
35048;SDS011;21236;48.740;-3.446;2023-02-12T03:00:30;26.35;;;14.68;;
35048;SDS011;21236;48.740;-3.446;2023-02-12T03:02:35;23.15;;;14.57;;
35048;SDS011;21236;48.740;-3.446;2023-02-12T03:05:07;31.23;;;16.80;;
35048;SDS011;21236;48.740;-3.446;2023-02-12T03:07:35;26.88;;;16.05;;
35048;SDS011;21236;48.740;-3.446;2023-02-12T03:10:25;24.33;;;15.73;;
35048;SDS011;21236;48.740;-3.446;2023-02-12T03:12:54;26.73;;;15.18;;
35048;SDS011;21236;48.740;-3.446;2023-02-12T03:17:48;27.05;;;14.77;;
35048;SDS011;21236;48.740;-3.446;2023-02-12T03:20:19;25.00;;;15.10;;
35048;SDS011;21236;48.740;-3.446;2023-02-12T03:22:51;27.00;;;15.70;;
35048;SDS011;21236;48.740;-3.446;2023-02-12T03:25:24;26.73;;;16.47;;
35048;SDS011;21236;48.740;-3.446;2023-02-12T03:27:55;22.73;;;15.35;;
35048;SDS011;21236;48.740;-3.446;2023-02-12T03:30:25;25.90;;;15.25;;
35048;SDS011;21236;48.740;-3.446;2023-02-12T03:32:57;22.92;;;14.70;;
35048;SDS011;21236;48.740;-3.446;2023-02-12T03:35:30;24.17;;;15.30;;
35048;SDS011;21236;48.740;-3.446;2023-02-12T03:40:30;24.15;;;14.23;;
35048;SDS011;21236;48.740;-3.446;2023-02-12T03:46:10;32.72;;;16.33;;
35048;SDS011;21236;48.740;-3.446;2023-02-12T03:51:01;27.33;;;16.40;;
35048;SDS011;21236;48.740;-3.446;2023-02-12T03:53:28;26.83;;;15.52;;
35048;SDS011;21236;48.740;-3.446;2023-02-12T03:55:56;27.33;;;17.17;;
35048;SDS011;21236;48.740;-3.446;2023-02-12T03:58:24;24.30;;;15.30;;
35048;SDS011;21236;48.740;-3.446;2023-02-12T04:00:52;31.20;;;16.98;;
35048;SDS011;21236;48.740;-3.446;2023-02-12T04:03:19;27.05;;;16.98;;
35048;SDS011;21236;48.740;-3.446;2023-02-12T04:05:45;29.95;;;15.77;;
35048;SDS011;21236;48.740;-3.446;2023-02-12T04:08:11;26.88;;;16.13;;
35048;SDS011;21236;48.740;-3.446;2023-02-12T04:10:44;28.83;;;16.92;;
35048;SDS011;21236;48.740;-3.446;2023-02-12T04:13:18;25.30;;;16.23;;
35048;SDS011;21236;48.740;-3.446;2023-02-12T04:18:33;27.42;;;16.42;;
35048;SDS011;21236;48.740;-3.446;2023-02-12T04:26:36;26.25;;;15.35;;
35048;SDS011;21236;48.740;-3.446;2023-02-12T04:31:51;25.60;;;15.57;;
35048;SDS011;21236;48.740;-3.446;2023-02-12T04:36:53;28.23;;;16.30;;
35048;SDS011;21236;48.740;-3.446;2023-02-12T04:39:23;24.50;;;15.02;;
35048;SDS011;21236;48.740;-3.446;2023-02-12T04:41:50;34.28;;;17.02;;
35048;SDS011;21236;48.740;-3.446;2023-02-12T04:44:24;27.63;;;16.77;;
35048;SDS011;21236;48.740;-3.446;2023-02-12T04:46:51;25.70;;;15.95;;
35048;SDS011;21236;48.740;-3.446;2023-02-12T04:49:18;27.73;;;15.52;;
35048;SDS011;21236;48.740;-3.446;2023-02-12T04:51:45;27.83;;;16.30;;
35048;SDS011;21236;48.740;-3.446;2023-02-12T04:54:12;26.38;;;15.70;;
35048;SDS011;21236;48.740;-3.446;2023-02-12T04:56:38;26.48;;;15.90;;
35048;SDS011;21236;48.740;-3.446;2023-02-12T04:59:04;28.15;;;17.10;;
35048;SDS011;21236;48.740;-3.446;2023-02-12T05:01:32;28.13;;;16.42;;
35048;SDS011;21236;48.740;-3.446;2023-02-12T05:03:59;28.75;;;16.77;;
35048;SDS011;21236;48.740;-3.446;2023-02-12T05:06:25;31.13;;;16.88;;
35048;SDS011;21236;48.740;-3.446;2023-02-12T05:08:52;29.92;;;16.25;;
35048;SDS011;21236;48.740;-3.446;2023-02-12T05:11:18;28.90;;;16.55;;
35048;SDS011;21236;48.740;-3.446;2023-02-12T05:13:47;32.28;;;17.13;;
35048;SDS011;21236;48.740;-3.446;2023-02-12T05:16:13;26.83;;;16.92;;
35048;SDS011;21236;48.740;-3.446;2023-02-12T05:18:39;27.13;;;17.52;;
35048;SDS011;21236;48.740;-3.446;2023-02-12T05:21:05;29.67;;;17.23;;
35048;SDS011;21236;48.740;-3.446;2023-02-12T05:23:32;25.10;;;15.68;;
35048;SDS011;21236;48.740;-3.446;2023-02-12T05:25:59;28.45;;;16.30;;
35048;SDS011;21236;48.740;-3.446;2023-02-12T05:28:25;29.98;;;17.17;;
35048;SDS011;21236;48.740;-3.446;2023-02-12T05:30:52;28.33;;;16.73;;
35048;SDS011;21236;48.740;-3.446;2023-02-12T05:33:18;28.95;;;17.08;;
35048;SDS011;21236;48.740;-3.446;2023-02-12T05:35:44;27.50;;;17.33;;
35048;SDS011;21236;48.740;-3.446;2023-02-12T05:38:10;28.00;;;17.08;;
35048;SDS011;21236;48.740;-3.446;2023-02-12T05:40:36;28.13;;;16.80;;
35048;SDS011;21236;48.740;-3.446;2023-02-12T05:43:04;26.08;;;15.98;;
35048;SDS011;21236;48.740;-3.446;2023-02-12T05:45:31;28.58;;;16.92;;
35048;SDS011;21236;48.740;-3.446;2023-02-12T05:47:57;27.92;;;16.92;;
35048;SDS011;21236;48.740;-3.446;2023-02-12T05:50:23;31.45;;;17.48;;
35048;SDS011;21236;48.740;-3.446;2023-02-12T05:52:58;25.25;;;15.40;;
35048;SDS011;21236;48.740;-3.446;2023-02-12T05:55:25;28.60;;;17.42;;
35048;SDS011;21236;48.740;-3.446;2023-02-12T05:57:51;29.50;;;17.85;;
35048;SDS011;21236;48.740;-3.446;2023-02-12T06:00:17;28.23;;;17.30;;
35048;SDS011;21236;48.740;-3.446;2023-02-12T06:02:44;26.85;;;16.85;;
35048;SDS011;21236;48.740;-3.446;2023-02-12T06:05:10;30.88;;;17.27;;
35048;SDS011;21236;48.740;-3.446;2023-02-12T06:07:36;30.30;;;17.27;;
35048;SDS011;21236;48.740;-3.446;2023-02-12T06:10:02;31.83;;;17.75;;
35048;SDS011;21236;48.740;-3.446;2023-02-12T06:12:29;29.23;;;17.52;;
35048;SDS011;21236;48.740;-3.446;2023-02-12T06:14:55;28.38;;;16.88;;
35048;SDS011;21236;48.740;-3.446;2023-02-12T06:17:21;25.50;;;16.75;;
35048;SDS011;21236;48.740;-3.446;2023-02-12T06:19:47;31.10;;;17.92;;
35048;SDS011;21236;48.740;-3.446;2023-02-12T06:22:13;32.30;;;18.75;;
35048;SDS011;21236;48.740;-3.446;2023-02-12T06:24:39;31.00;;;18.05;;
35048;SDS011;21236;48.740;-3.446;2023-02-12T06:27:05;37.92;;;18.02;;
35048;SDS011;21236;48.740;-3.446;2023-02-12T06:29:31;30.17;;;16.70;;
35048;SDS011;21236;48.740;-3.446;2023-02-12T06:31:57;29.70;;;17.40;;
35048;SDS011;21236;48.740;-3.446;2023-02-12T06:34:23;35.03;;;18.65;;
35048;SDS011;21236;48.740;-3.446;2023-02-12T06:36:50;39.00;;;18.48;;
35048;SDS011;21236;48.740;-3.446;2023-02-12T06:39:16;35.50;;;18.35;;
35048;SDS011;21236;48.740;-3.446;2023-02-12T06:41:42;66.20;;;20.15;;
35048;SDS011;21236;48.740;-3.446;2023-02-12T06:44:09;59.20;;;22.25;;
35048;SDS011;21236;48.740;-3.446;2023-02-12T06:46:36;59.85;;;19.92;;
35048;SDS011;21236;48.740;-3.446;2023-02-12T06:49:02;53.95;;;19.75;;
35048;SDS011;21236;48.740;-3.446;2023-02-12T06:51:28;49.75;;;19.67;;
35048;SDS011;21236;48.740;-3.446;2023-02-12T06:53:55;76.85;;;21.40;;
35048;SDS011;21236;48.740;-3.446;2023-02-12T06:56:22;57.28;;;19.50;;
35048;SDS011;21236;48.740;-3.446;2023-02-12T06:58:57;37.15;;;19.80;;
35048;SDS011;21236;48.740;-3.446;2023-02-12T07:01:26;43.78;;;20.13;;
35048;SDS011;21236;48.740;-3.446;2023-02-12T07:03:53;39.42;;;20.70;;
35048;SDS011;21236;48.740;-3.446;2023-02-12T07:06:20;42.72;;;20.00;;
35048;SDS011;21236;48.740;-3.446;2023-02-12T07:08:46;46.38;;;21.55;;
35048;SDS011;21236;48.740;-3.446;2023-02-12T07:11:13;44.22;;;20.55;;
35048;SDS011;21236;48.740;-3.446;2023-02-12T07:13:39;38.40;;;20.75;;
35048;SDS011;21236;48.740;-3.446;2023-02-12T07:16:07;41.22;;;20.50;;
35048;SDS011;21236;48.740;-3.446;2023-02-12T07:18:34;41.25;;;20.42;;
35048;SDS011;21236;48.740;-3.446;2023-02-12T07:21:00;38.65;;;20.52;;
35048;SDS011;21236;48.740;-3.446;2023-02-12T07:23:26;39.50;;;20.60;;
35048;SDS011;21236;48.740;-3.446;2023-02-12T07:25:56;48.90;;;22.48;;
35048;SDS011;21236;48.740;-3.446;2023-02-12T07:28:22;39.30;;;20.33;;
35048;SDS011;21236;48.740;-3.446;2023-02-12T07:30:48;36.85;;;20.23;;
35048;SDS011;21236;48.740;-3.446;2023-02-12T07:33:14;40.72;;;20.35;;
35048;SDS011;21236;48.740;-3.446;2023-02-12T07:35:41;58.10;;;21.38;;
35048;SDS011;21236;48.740;-3.446;2023-02-12T07:38:07;60.60;;;21.85;;
35048;SDS011;21236;48.740;-3.446;2023-02-12T07:40:33;56.53;;;20.38;;
35048;SDS011;21236;48.740;-3.446;2023-02-12T07:42:59;49.30;;;21.17;;
35048;SDS011;21236;48.740;-3.446;2023-02-12T07:45:25;47.92;;;20.40;;
35048;SDS011;21236;48.740;-3.446;2023-02-12T07:47:51;49.88;;;21.00;;
35048;SDS011;21236;48.740;-3.446;2023-02-12T07:50:17;61.03;;;22.30;;
35048;SDS011;21236;48.740;-3.446;2023-02-12T07:52:43;56.25;;;22.13;;
35048;SDS011;21236;48.740;-3.446;2023-02-12T07:55:10;53.25;;;22.00;;
35048;SDS011;21236;48.740;-3.446;2023-02-12T07:57:36;49.25;;;22.92;;
35048;SDS011;21236;48.740;-3.446;2023-02-12T08:00:03;45.90;;;23.05;;
35048;SDS011;21236;48.740;-3.446;2023-02-12T08:02:37;47.33;;;23.77;;
35048;SDS011;21236;48.740;-3.446;2023-02-12T08:05:03;42.58;;;22.20;;
35048;SDS011;21236;48.740;-3.446;2023-02-12T08:07:29;49.83;;;24.45;;
35048;SDS011;21236;48.740;-3.446;2023-02-12T08:09:55;49.55;;;23.23;;
35048;SDS011;21236;48.740;-3.446;2023-02-12T08:12:22;46.13;;;23.65;;
35048;SDS011;21236;48.740;-3.446;2023-02-12T08:14:48;52.60;;;25.13;;
35048;SDS011;21236;48.740;-3.446;2023-02-12T08:17:14;51.05;;;24.48;;
35048;SDS011;21236;48.740;-3.446;2023-02-12T08:19:40;49.95;;;24.92;;
35048;SDS011;21236;48.740;-3.446;2023-02-12T08:22:06;59.45;;;27.77;;
35048;SDS011;21236;48.740;-3.446;2023-02-12T08:24:32;60.83;;;27.40;;
35048;SDS011;21236;48.740;-3.446;2023-02-12T08:26:58;50.42;;;24.92;;
35048;SDS011;21236;48.740;-3.446;2023-02-12T08:29:26;58.47;;;27.15;;
35048;SDS011;21236;48.740;-3.446;2023-02-12T08:32:00;51.05;;;26.40;;
35048;SDS011;21236;48.740;-3.446;2023-02-12T08:34:27;59.42;;;27.13;;
35048;SDS011;21236;48.740;-3.446;2023-02-12T08:36:54;57.40;;;26.95;;
35048;SDS011;21236;48.740;-3.446;2023-02-12T08:39:21;53.55;;;26.80;;
35048;SDS011;21236;48.740;-3.446;2023-02-12T08:41:47;51.65;;;26.55;;
35048;SDS011;21236;48.740;-3.446;2023-02-12T08:44:13;58.38;;;28.52;;
35048;SDS011;21236;48.740;-3.446;2023-02-12T08:46:42;56.03;;;28.90;;
35048;SDS011;21236;48.740;-3.446;2023-02-12T08:49:14;51.35;;;26.42;;
35048;SDS011;21236;48.740;-3.446;2023-02-12T08:51:41;54.50;;;29.10;;
35048;SDS011;21236;48.740;-3.446;2023-02-12T08:54:12;56.40;;;28.73;;
35048;SDS011;21236;48.740;-3.446;2023-02-12T08:56:38;58.55;;;27.98;;
35048;SDS011;21236;48.740;-3.446;2023-02-12T08:59:05;57.30;;;29.10;;
35048;SDS011;21236;48.740;-3.446;2023-02-12T09:01:32;52.70;;;27.98;;
35048;SDS011;21236;48.740;-3.446;2023-02-12T09:03:59;54.67;;;29.08;;
35048;SDS011;21236;48.740;-3.446;2023-02-12T09:06:26;58.60;;;28.13;;
35048;SDS011;21236;48.740;-3.446;2023-02-12T09:08:52;54.03;;;27.00;;
35048;SDS011;21236;48.740;-3.446;2023-02-12T09:11:23;58.22;;;29.60;;
35048;SDS011;21236;48.740;-3.446;2023-02-12T09:13:58;57.63;;;28.65;;
35048;SDS011;21236;48.740;-3.446;2023-02-12T09:16:28;58.30;;;29.08;;
35048;SDS011;21236;48.740;-3.446;2023-02-12T09:18:55;55.10;;;29.58;;
35048;SDS011;21236;48.740;-3.446;2023-02-12T09:21:21;55.45;;;28.60;;
35048;SDS011;21236;48.740;-3.446;2023-02-12T09:23:47;52.25;;;27.50;;
35048;SDS011;21236;48.740;-3.446;2023-02-12T09:26:15;70.35;;;29.92;;
35048;SDS011;21236;48.740;-3.446;2023-02-12T09:28:42;53.90;;;28.42;;
35048;SDS011;21236;48.740;-3.446;2023-02-12T09:31:09;54.35;;;28.15;;
35048;SDS011;21236;48.740;-3.446;2023-02-12T09:33:35;54.45;;;26.52;;
35048;SDS011;21236;48.740;-3.446;2023-02-12T09:36:02;60.05;;;30.17;;
35048;SDS011;21236;48.740;-3.446;2023-02-12T09:38:28;56.70;;;28.20;;
35048;SDS011;21236;48.740;-3.446;2023-02-12T09:43:59;66.82;;;32.67;;
35048;SDS011;21236;48.740;-3.446;2023-02-12T09:46:30;58.13;;;30.25;;
35048;SDS011;21236;48.740;-3.446;2023-02-12T09:51:23;57.33;;;29.67;;
35048;SDS011;21236;48.740;-3.446;2023-02-12T09:53:53;57.28;;;28.42;;
35048;SDS011;21236;48.740;-3.446;2023-02-12T09:56:20;55.50;;;30.00;;
35048;SDS011;21236;48.740;-3.446;2023-02-12T09:58:50;53.10;;;29.02;;
35048;SDS011;21236;48.740;-3.446;2023-02-12T10:01:18;54.88;;;27.77;;
35048;SDS011;21236;48.740;-3.446;2023-02-12T10:03:46;53.22;;;28.05;;
35048;SDS011;21236;48.740;-3.446;2023-02-12T10:06:16;50.83;;;26.33;;
35048;SDS011;21236;48.740;-3.446;2023-02-12T10:25:15;57.15;;;28.67;;
35048;SDS011;21236;48.740;-3.446;2023-02-12T10:27:16;55.40;;;28.55;;
35048;SDS011;21236;48.740;-3.446;2023-02-12T10:29:45;56.97;;;30.05;;
35048;SDS011;21236;48.740;-3.446;2023-02-12T10:32:15;60.90;;;31.65;;
35048;SDS011;21236;48.740;-3.446;2023-02-12T10:34:44;61.78;;;30.52;;
35048;SDS011;21236;48.740;-3.446;2023-02-12T10:39:41;54.70;;;30.00;;
35048;SDS011;21236;48.740;-3.446;2023-02-12T10:42:13;56.05;;;29.67;;
35048;SDS011;21236;48.740;-3.446;2023-02-12T10:44:41;52.55;;;28.42;;
35048;SDS011;21236;48.740;-3.446;2023-02-12T10:47:19;50.70;;;28.05;;
35048;SDS011;21236;48.740;-3.446;2023-02-12T10:49:48;53.67;;;27.25;;
35048;SDS011;21236;48.740;-3.446;2023-02-12T10:52:29;49.28;;;27.13;;
35048;SDS011;21236;48.740;-3.446;2023-02-12T10:54:58;48.15;;;26.77;;
35048;SDS011;21236;48.740;-3.446;2023-02-12T10:57:31;50.22;;;25.27;;
35048;SDS011;21236;48.740;-3.446;2023-02-12T11:00:14;47.33;;;24.90;;
35048;SDS011;21236;48.740;-3.446;2023-02-12T11:02:58;48.53;;;27.00;;
35048;SDS011;21236;48.740;-3.446;2023-02-12T11:05:25;46.40;;;26.85;;
35048;SDS011;21236;48.740;-3.446;2023-02-12T11:07:51;45.60;;;27.02;;
35048;SDS011;21236;48.740;-3.446;2023-02-12T11:10:24;50.53;;;25.90;;
35048;SDS011;21236;48.740;-3.446;2023-02-12T11:12:52;44.35;;;24.10;;
35048;SDS011;21236;48.740;-3.446;2023-02-12T11:15:20;44.50;;;26.05;;
35048;SDS011;21236;48.740;-3.446;2023-02-12T11:17:54;42.20;;;24.83;;
35048;SDS011;21236;48.740;-3.446;2023-02-12T11:20:22;40.17;;;23.33;;
35048;SDS011;21236;48.740;-3.446;2023-02-12T11:22:49;45.35;;;23.65;;
35048;SDS011;21236;48.740;-3.446;2023-02-12T11:25:16;44.50;;;23.50;;
35048;SDS011;21236;48.740;-3.446;2023-02-12T11:27:42;45.65;;;24.80;;
35048;SDS011;21236;48.740;-3.446;2023-02-12T11:32:37;41.75;;;23.40;;
35048;SDS011;21236;48.740;-3.446;2023-02-12T11:37:38;43.40;;;25.00;;
35048;SDS011;21236;48.740;-3.446;2023-02-12T11:40:05;46.22;;;25.60;;
35048;SDS011;21236;48.740;-3.446;2023-02-12T11:42:33;43.55;;;23.20;;
35048;SDS011;21236;48.740;-3.446;2023-02-12T11:45:00;40.55;;;21.40;;
35048;SDS011;21236;48.740;-3.446;2023-02-12T11:47:30;44.08;;;24.10;;
35048;SDS011;21236;48.740;-3.446;2023-02-12T11:52:27;41.25;;;23.45;;
35048;SDS011;21236;48.740;-3.446;2023-02-12T11:54:55;44.60;;;22.73;;
35048;SDS011;21236;48.740;-3.446;2023-02-12T12:00:03;42.83;;;23.38;;
35048;SDS011;21236;48.740;-3.446;2023-02-12T12:02:31;45.80;;;23.20;;
35048;SDS011;21236;48.740;-3.446;2023-02-12T12:05:06;45.85;;;23.00;;
35048;SDS011;21236;48.740;-3.446;2023-02-12T12:07:34;40.28;;;22.73;;
35048;SDS011;21236;48.740;-3.446;2023-02-12T12:10:12;40.33;;;23.98;;
35048;SDS011;21236;48.740;-3.446;2023-02-12T12:12:42;41.10;;;22.38;;
35048;SDS011;21236;48.740;-3.446;2023-02-12T12:15:14;40.42;;;22.65;;
35048;SDS011;21236;48.740;-3.446;2023-02-12T12:21:16;35.30;;;20.10;;
35048;SDS011;21236;48.740;-3.446;2023-02-12T12:23:46;36.92;;;20.55;;
35048;SDS011;21236;48.740;-3.446;2023-02-12T12:26:24;35.22;;;20.58;;
35048;SDS011;21236;48.740;-3.446;2023-02-12T12:28:56;34.90;;;21.98;;
35048;SDS011;21236;48.740;-3.446;2023-02-12T12:31:26;39.78;;;22.02;;
35048;SDS011;21236;48.740;-3.446;2023-02-12T12:34:07;48.13;;;22.58;;
35048;SDS011;21236;48.740;-3.446;2023-02-12T12:36:38;38.50;;;21.25;;
35048;SDS011;21236;48.740;-3.446;2023-02-12T12:39:15;40.22;;;21.55;;
35048;SDS011;21236;48.740;-3.446;2023-02-12T12:49:44;39.05;;;21.15;;
35048;SDS011;21236;48.740;-3.446;2023-02-12T12:57:55;41.53;;;22.08;;
35048;SDS011;21236;48.740;-3.446;2023-02-12T13:00:27;37.47;;;22.95;;
35048;SDS011;21236;48.740;-3.446;2023-02-12T13:03:18;36.40;;;21.23;;
35048;SDS011;21236;48.740;-3.446;2023-02-12T13:08:38;36.28;;;21.58;;
35048;SDS011;21236;48.740;-3.446;2023-02-12T13:13:45;37.38;;;21.25;;
35048;SDS011;21236;48.740;-3.446;2023-02-12T13:23:57;37.65;;;21.00;;
35048;SDS011;21236;48.740;-3.446;2023-02-12T13:26:32;35.92;;;21.75;;
35048;SDS011;21236;48.740;-3.446;2023-02-12T13:29:05;42.08;;;20.92;;
35048;SDS011;21236;48.740;-3.446;2023-02-12T13:31:34;38.17;;;21.95;;
35048;SDS011;21236;48.740;-3.446;2023-02-12T13:34:01;36.40;;;20.33;;
35048;SDS011;21236;48.740;-3.446;2023-02-12T13:36:29;34.58;;;20.92;;
35048;SDS011;21236;48.740;-3.446;2023-02-12T13:41:22;31.58;;;20.08;;
35048;SDS011;21236;48.740;-3.446;2023-02-12T13:46:43;35.83;;;20.13;;
35048;SDS011;21236;48.740;-3.446;2023-02-12T13:49:36;39.45;;;19.80;;
35048;SDS011;21236;48.740;-3.446;2023-02-12T13:52:22;34.58;;;20.35;;
35048;SDS011;21236;48.740;-3.446;2023-02-12T13:55:01;33.20;;;19.73;;
35048;SDS011;21236;48.740;-3.446;2023-02-12T13:57:30;32.63;;;20.02;;
35048;SDS011;21236;48.740;-3.446;2023-02-12T13:59:56;31.35;;;19.90;;
35048;SDS011;21236;48.740;-3.446;2023-02-12T14:04:59;30.77;;;18.33;;
35048;SDS011;21236;48.740;-3.446;2023-02-12T14:07:42;33.38;;;19.17;;
35048;SDS011;21236;48.740;-3.446;2023-02-12T14:12:44;30.48;;;18.45;;
35048;SDS011;21236;48.740;-3.446;2023-02-12T14:20:31;33.08;;;18.85;;
35048;SDS011;21236;48.740;-3.446;2023-02-12T14:40:52;28.55;;;17.38;;
35048;SDS011;21236;48.740;-3.446;2023-02-12T14:43:37;29.55;;;17.05;;
35048;SDS011;21236;48.740;-3.446;2023-02-12T14:53:52;32.95;;;18.92;;
35048;SDS011;21236;48.740;-3.446;2023-02-12T14:56:20;32.35;;;19.08;;
35048;SDS011;21236;48.740;-3.446;2023-02-12T14:58:47;26.70;;;16.95;;
35048;SDS011;21236;48.740;-3.446;2023-02-12T15:01:14;31.00;;;18.58;;
35048;SDS011;21236;48.740;-3.446;2023-02-12T15:03:42;32.45;;;18.98;;
35048;SDS011;21236;48.740;-3.446;2023-02-12T15:14:07;31.17;;;18.45;;
35048;SDS011;21236;48.740;-3.446;2023-02-12T15:16:43;28.98;;;16.98;;
35048;SDS011;21236;48.740;-3.446;2023-02-12T15:21:42;33.00;;;17.80;;
35048;SDS011;21236;48.740;-3.446;2023-02-12T15:24:11;29.50;;;18.48;;
35048;SDS011;21236;48.740;-3.446;2023-02-12T15:26:46;33.97;;;16.55;;
35048;SDS011;21236;48.740;-3.446;2023-02-12T15:32:00;28.40;;;17.67;;
35048;SDS011;21236;48.740;-3.446;2023-02-12T15:34:28;27.67;;;17.92;;
35048;SDS011;21236;48.740;-3.446;2023-02-12T15:36:56;32.53;;;18.08;;
35048;SDS011;21236;48.740;-3.446;2023-02-12T15:39:23;28.85;;;17.42;;
35048;SDS011;21236;48.740;-3.446;2023-02-12T15:41:49;30.80;;;17.67;;
35048;SDS011;21236;48.740;-3.446;2023-02-12T15:44:18;28.50;;;17.65;;
35048;SDS011;21236;48.740;-3.446;2023-02-12T15:47:09;28.25;;;17.45;;
35048;SDS011;21236;48.740;-3.446;2023-02-12T15:49:37;26.75;;;16.55;;
35048;SDS011;21236;48.740;-3.446;2023-02-12T15:52:07;30.85;;;17.30;;
35048;SDS011;21236;48.740;-3.446;2023-02-12T15:54:34;27.55;;;16.40;;
35048;SDS011;21236;48.740;-3.446;2023-02-12T15:57:00;30.63;;;18.13;;
35048;SDS011;21236;48.740;-3.446;2023-02-12T15:59:27;27.92;;;18.42;;
35048;SDS011;21236;48.740;-3.446;2023-02-12T16:01:54;29.50;;;17.38;;
35048;SDS011;21236;48.740;-3.446;2023-02-12T16:04:21;31.80;;;18.52;;
35048;SDS011;21236;48.740;-3.446;2023-02-12T16:06:47;28.80;;;16.92;;
35048;SDS011;21236;48.740;-3.446;2023-02-12T16:09:16;32.75;;;17.27;;
35048;SDS011;21236;48.740;-3.446;2023-02-12T16:11:43;32.13;;;18.17;;
35048;SDS011;21236;48.740;-3.446;2023-02-12T16:14:23;27.92;;;16.48;;
35048;SDS011;21236;48.740;-3.446;2023-02-12T16:16:51;30.63;;;17.67;;
35048;SDS011;21236;48.740;-3.446;2023-02-12T16:19:28;31.83;;;17.80;;
35048;SDS011;21236;48.740;-3.446;2023-02-12T16:24:38;31.37;;;18.33;;
35048;SDS011;21236;48.740;-3.446;2023-02-12T16:29:44;30.05;;;18.58;;
35048;SDS011;21236;48.740;-3.446;2023-02-12T16:32:25;31.17;;;18.83;;
35048;SDS011;21236;48.740;-3.446;2023-02-12T16:34:58;36.20;;;20.00;;
35048;SDS011;21236;48.740;-3.446;2023-02-12T16:50:34;30.55;;;18.50;;
35048;SDS011;21236;48.740;-3.446;2023-02-12T16:53:07;34.90;;;19.13;;
35048;SDS011;21236;48.740;-3.446;2023-02-12T16:55:47;33.83;;;19.10;;
35048;SDS011;21236;48.740;-3.446;2023-02-12T16:58:13;32.13;;;18.20;;
35048;SDS011;21236;48.740;-3.446;2023-02-12T17:00:39;33.42;;;19.23;;
35048;SDS011;21236;48.740;-3.446;2023-02-12T17:03:08;33.58;;;20.77;;
35048;SDS011;21236;48.740;-3.446;2023-02-12T17:05:35;32.42;;;18.38;;
35048;SDS011;21236;48.740;-3.446;2023-02-12T17:08:01;37.08;;;19.02;;
35048;SDS011;21236;48.740;-3.446;2023-02-12T17:10:28;31.48;;;18.75;;
35048;SDS011;21236;48.740;-3.446;2023-02-12T17:12:54;34.47;;;20.20;;
35048;SDS011;21236;48.740;-3.446;2023-02-12T17:15:23;33.15;;;19.38;;
35048;SDS011;21236;48.740;-3.446;2023-02-12T17:17:49;34.08;;;19.30;;
35048;SDS011;21236;48.740;-3.446;2023-02-12T17:20:16;33.20;;;19.67;;